createdAt,value
2023-03-05T00:00:27.610Z,62
2023-03-05T00:02:55.911Z,60
2023-03-05T00:05:24.149Z,69
2023-03-05T00:07:52.400Z,66
2023-03-05T00:10:20.642Z,63
2023-03-05T00:12:48.933Z,63
2023-03-05T00:15:17.170Z,73
2023-03-05T00:17:45.463Z,69
2023-03-05T00:20:13.760Z,59
2023-03-05T00:22:41.987Z,63
2023-03-05T00:26:24.392Z,70
2023-03-05T00:28:52.672Z,62
2023-03-05T00:31:20.983Z,69
2023-03-05T00:33:49.203Z,70
2023-03-05T00:36:17.505Z,68
2023-03-05T00:38:45.721Z,67
2023-03-05T00:41:14.013Z,66
2023-03-05T00:43:42.246Z,67
2023-03-05T00:47:24.663Z,59
2023-03-05T00:49:52.927Z,65
2023-03-05T00:52:21.176Z,69
2023-03-05T00:54:49.466Z,60
2023-03-05T00:58:23.653Z,72
2023-03-05T01:00:51.968Z,69
2023-03-05T01:03:20.204Z,70
2023-03-05T01:05:48.426Z,74
2023-03-05T01:08:16.721Z,60
2023-03-05T01:10:45.030Z,72
2023-03-05T01:15:41.910Z,69
2023-03-05T01:19:23.926Z,68
2023-03-05T01:21:52.184Z,64
2023-03-05T01:24:20.432Z,66
2023-03-05T01:26:48.684Z,65
2023-03-05T01:29:16.955Z,58
2023-03-05T01:31:45.351Z,55
2023-03-05T01:34:13.491Z,63
2023-03-05T01:36:41.756Z,64
2023-03-05T01:40:24.172Z,65
2023-03-05T01:42:52.431Z,65
2023-03-05T01:45:20.761Z,69
2023-03-05T01:47:49.046Z,65
2023-03-05T01:50:25.454Z,67
2023-03-05T01:52:53.721Z,65
2023-03-05T01:55:21.953Z,57
2023-03-05T02:00:10.336Z,68
2023-03-05T02:02:38.574Z,65
2023-03-05T02:06:20.979Z,69
2023-03-05T02:08:49.243Z,64
2023-03-05T02:11:17.545Z,62
2023-03-05T02:13:45.779Z,64
2023-03-05T02:16:14.069Z,59
2023-03-05T02:18:42.320Z,61
2023-03-05T02:22:24.719Z,63
2023-03-05T02:24:52.996Z,74
2023-03-05T02:27:21.259Z,70
2023-03-05T02:29:49.523Z,66
2023-03-05T02:32:17.897Z,68
2023-03-05T02:34:46.068Z,72
2023-03-05T02:37:14.334Z,67
2023-03-05T02:39:42.604Z,69
2023-03-05T02:43:25.005Z,66
2023-03-05T02:45:53.243Z,66
2023-03-05T02:48:21.494Z,70
2023-03-05T02:50:49.740Z,75
2023-03-05T02:53:18.013Z,73
2023-03-05T02:55:46.301Z,68
2023-03-05T02:59:20.507Z,72
2023-03-05T03:01:48.768Z,73
2023-03-05T03:04:17.052Z,76
2023-03-05T03:06:45.349Z,67
2023-03-05T03:09:13.535Z,67
2023-03-05T03:11:41.839Z,66
2023-03-05T03:15:24.201Z,67
2023-03-05T03:17:52.509Z,71
2023-03-05T03:20:20.748Z,66
2023-03-05T03:22:49.027Z,71
2023-03-05T03:25:17.335Z,67
2023-03-05T03:27:45.552Z,80
2023-03-05T03:30:13.811Z,69
2023-03-05T03:32:42.102Z,77
2023-03-05T03:36:24.496Z,71
2023-03-05T03:38:52.758Z,72
2023-03-05T03:41:21.024Z,71
2023-03-05T03:43:49.280Z,73
2023-03-05T03:46:17.616Z,69
2023-03-05T03:48:45.836Z,71
2023-03-05T03:51:14.126Z,64
2023-03-05T03:53:42.447Z,67
2023-03-05T03:57:24.797Z,70
2023-03-05T03:59:53.024Z,77
2023-03-05T04:02:21.379Z,68
2023-03-05T04:04:49.569Z,66
2023-03-05T04:09:37.928Z,74
2023-03-05T04:13:20.304Z,69
2023-03-05T04:15:48.620Z,71
2023-03-05T04:18:16.938Z,69
2023-03-05T04:20:45.085Z,72
2023-03-05T04:23:13.417Z,66
2023-03-05T04:25:41.641Z,74
2023-03-05T04:29:24.001Z,74
2023-03-05T04:31:52.295Z,73
2023-03-05T04:34:20.552Z,68
2023-03-05T04:36:48.837Z,72
2023-03-05T04:39:17.075Z,74
2023-03-05T04:41:45.380Z,73
2023-03-05T04:44:13.646Z,67
2023-03-05T04:46:41.941Z,65
2023-03-05T04:50:24.282Z,70
2023-03-05T04:52:52.599Z,75
2023-03-05T04:55:20.871Z,75
2023-03-05T04:57:49.092Z,69
2023-03-05T05:00:17.381Z,74
2023-03-05T05:02:45.725Z,72
2023-03-05T05:05:13.883Z,72
2023-03-05T05:07:42.200Z,77
2023-03-05T05:11:16.376Z,74
2023-03-05T05:13:44.643Z,79
2023-03-05T05:16:12.924Z,74
2023-03-05T05:18:41.146Z,81
2023-03-05T05:22:23.590Z,71
2023-03-05T05:24:51.859Z,67
2023-03-05T05:27:20.137Z,85
2023-03-05T05:29:48.350Z,89
2023-03-05T05:32:16.672Z,78
2023-03-05T05:34:44.897Z,75
2023-03-05T05:37:13.167Z,78
2023-03-05T05:39:41.448Z,86
2023-03-05T05:43:23.833Z,83
2023-03-05T05:45:52.185Z,85
2023-03-05T05:48:20.358Z,87
2023-03-05T05:50:48.644Z,89
2023-03-05T05:53:16.919Z,85
2023-03-05T05:55:45.247Z,83
2023-03-05T05:58:21.629Z,86
2023-03-05T06:00:49.898Z,92
2023-03-05T06:03:18.158Z,81
2023-03-05T06:05:46.384Z,76
2023-03-05T06:09:20.608Z,78
2023-03-05T06:11:48.930Z,80
2023-03-05T06:14:17.153Z,82
2023-03-05T06:16:45.481Z,79
2023-03-05T06:19:13.675Z,83
2023-03-05T06:21:41.988Z,76
2023-03-05T06:25:24.350Z,66
2023-03-05T06:27:52.642Z,87
2023-03-05T06:30:20.961Z,81
2023-03-05T06:32:49.182Z,76
2023-03-05T06:35:17.481Z,81
2023-03-05T06:37:45.715Z,75
2023-03-05T06:40:14.004Z,75
2023-03-05T06:42:42.239Z,81
2023-03-05T06:46:24.679Z,70
2023-03-05T06:48:52.897Z,79
2023-03-05T06:51:21.178Z,73
2023-03-05T06:53:49.705Z,73
2023-03-05T06:56:17.703Z,67
2023-03-05T06:58:45.968Z,75
2023-03-05T07:01:14.265Z,68
2023-03-05T07:03:42.481Z,69
2023-03-05T07:07:24.917Z,63
2023-03-05T07:12:13.213Z,64
2023-03-05T07:14:41.506Z,65
2023-03-05T07:18:23.899Z,70
2023-03-05T07:20:52.197Z,65
2023-03-05T07:23:20.410Z,60
2023-03-05T07:25:48.672Z,59
2023-03-05T07:28:16.941Z,66
2023-03-05T07:30:45.258Z,68
2023-03-05T07:33:13.490Z,65
2023-03-05T07:35:41.775Z,58
2023-03-05T07:39:24.159Z,57
2023-03-05T07:41:52.463Z,61
2023-03-05T07:44:20.661Z,62
2023-03-05T07:46:48.968Z,63
2023-03-05T07:49:17.207Z,58
2023-03-05T07:51:45.535Z,60
2023-03-05T07:54:13.741Z,59
2023-03-05T07:56:42.045Z,63
2023-03-05T08:00:24.490Z,56
2023-03-05T08:02:52.768Z,55
2023-03-05T08:05:20.976Z,60
2023-03-05T08:07:49.361Z,54
2023-03-05T08:10:17.514Z,53
2023-03-05T08:12:45.789Z,56
2023-03-05T08:15:14.013Z,55
2023-03-05T08:17:42.296Z,52
2023-03-05T08:21:16.513Z,53
2023-03-05T08:23:44.799Z,57
2023-03-05T08:26:13.016Z,57
2023-03-05T08:28:41.311Z,52
2023-03-05T08:32:23.715Z,53
2023-03-05T08:34:51.954Z,52
2023-03-05T08:37:20.227Z,46
2023-03-05T08:39:48.502Z,51
2023-03-05T08:42:16.746Z,40
2023-03-05T08:44:45.037Z,49
2023-03-05T08:47:13.296Z,54
2023-03-05T08:49:41.585Z,51
2023-03-05T08:53:23.951Z,45
2023-03-05T08:55:52.247Z,49
2023-03-05T08:58:20.459Z,52
2023-03-05T09:00:48.756Z,44
2023-03-05T09:03:17.065Z,53
2023-03-05T09:05:45.317Z,45
2023-03-05T09:08:13.553Z,47
2023-03-05T09:10:41.804Z,50
2023-03-05T09:14:24.215Z,44
2023-03-05T09:16:52.468Z,44
2023-03-05T09:19:20.743Z,49
2023-03-05T09:24:09.127Z,48
2023-03-05T09:26:37.354Z,45
2023-03-05T09:35:16.331Z,51
2023-03-05T09:37:44.584Z,46
2023-03-05T09:40:12.816Z,42
2023-03-05T09:42:41.093Z,47
2023-03-05T09:46:23.491Z,47
2023-03-05T09:48:51.780Z,52
2023-03-05T09:51:20.032Z,53
2023-03-05T09:53:48.307Z,50
2023-03-05T09:56:16.558Z,47
2023-03-05T09:58:44.839Z,45
2023-03-05T10:01:13.055Z,46
2023-03-05T10:03:41.514Z,41
2023-03-05T10:07:31.953Z,42
2023-03-05T10:11:14.320Z,41
2023-03-05T10:13:42.658Z,38
2023-03-05T10:17:24.994Z,36
2023-03-05T10:19:53.287Z,36
2023-03-05T10:22:13.370Z,35
2023-03-05T10:24:41.623Z,31
2023-03-05T10:28:24.044Z,34
2023-03-05T10:30:52.300Z,28
2023-03-05T10:33:20.557Z,30
2023-03-05T10:35:48.897Z,31
2023-03-05T10:38:17.085Z,29
2023-03-05T10:40:45.359Z,29
2023-03-05T10:43:13.604Z,24
2023-03-05T10:45:41.954Z,28
2023-03-05T10:49:24.300Z,28
2023-03-05T10:51:52.563Z,27
2023-03-05T10:54:20.839Z,26
2023-03-05T10:56:49.117Z,25
2023-03-05T10:59:17.327Z,26
2023-03-05T11:01:45.706Z,25
2023-03-05T11:04:13.870Z,25
2023-03-05T11:06:42.142Z,24
2023-03-05T11:10:24.526Z,25
2023-03-05T11:12:52.843Z,21
2023-03-05T11:15:21.058Z,22
2023-03-05T11:17:49.403Z,20
2023-03-05T11:20:17.616Z,21
2023-03-05T11:22:37.700Z,22
2023-03-05T11:26:20.064Z,23
2023-03-05T11:28:48.344Z,23
2023-03-05T11:31:16.695Z,24
2023-03-05T11:33:44.895Z,23
2023-03-05T11:36:13.157Z,25
2023-03-05T11:38:41.395Z,22
2023-03-05T11:42:23.862Z,22
2023-03-05T11:44:52.076Z,26
2023-03-05T11:47:20.353Z,21
2023-03-05T11:49:48.598Z,23
2023-03-05T11:52:16.932Z,25
2023-03-05T11:54:45.177Z,21
2023-03-05T11:57:13.518Z,20
2023-03-05T11:59:41.702Z,20
2023-03-05T12:03:24.104Z,18
2023-03-05T12:05:52.376Z,20
2023-03-05T12:08:20.622Z,20
2023-03-05T12:10:48.908Z,23
2023-03-05T12:13:17.160Z,20
2023-03-05T12:15:45.440Z,24
2023-03-05T12:18:13.695Z,19
2023-03-05T12:20:42.099Z,20
2023-03-05T12:24:16.187Z,24
2023-03-05T12:26:44.414Z,20
2023-03-05T12:29:12.732Z,20
2023-03-05T12:31:41.532Z,20
2023-03-05T12:35:23.496Z,22
2023-03-05T12:37:51.658Z,19
2023-03-05T12:40:19.893Z,21
2023-03-05T12:42:48.149Z,17
2023-03-05T12:45:16.437Z,20
2023-03-05T12:47:44.697Z,18
2023-03-05T12:50:13.008Z,20
2023-03-05T12:52:41.197Z,18
2023-03-05T12:56:23.666Z,20
2023-03-05T12:58:51.875Z,16
2023-03-05T13:01:20.178Z,20
2023-03-05T13:03:48.458Z,19
2023-03-05T13:06:16.702Z,20
2023-03-05T13:08:44.956Z,17
2023-03-05T13:11:13.231Z,23
2023-03-05T13:13:41.468Z,20
2023-03-05T13:17:23.923Z,19
2023-03-05T13:19:52.148Z,19
2023-03-05T13:23:26.370Z,19
2023-03-05T13:25:54.635Z,21
2023-03-05T13:28:22.897Z,19
2023-03-05T13:30:51.161Z,19
2023-03-05T13:33:19.418Z,22
2023-03-05T13:35:47.733Z,19
2023-03-05T13:38:15.934Z,23
2023-03-05T13:40:44.208Z,22
2023-03-05T13:43:12.497Z,19
2023-03-05T13:45:40.900Z,22
2023-03-05T13:49:23.217Z,21
2023-03-05T13:51:51.413Z,23
2023-03-05T13:54:19.698Z,20
2023-03-05T13:56:47.972Z,20
2023-03-05T13:59:16.251Z,23
2023-03-05T14:01:44.481Z,20
2023-03-05T14:04:12.728Z,24
2023-03-05T14:06:41.004Z,20
2023-03-05T14:10:23.408Z,19
2023-03-05T14:12:59.891Z,26
2023-03-05T14:15:28.181Z,25
2023-03-05T14:17:56.419Z,23
2023-03-05T14:20:24.650Z,24
2023-03-05T14:22:52.931Z,25
2023-03-05T14:26:29.086Z,25
2023-03-05T14:28:55.431Z,23
2023-03-05T14:31:23.660Z,23
2023-03-05T14:33:51.915Z,22
2023-03-05T14:36:20.198Z,23
2023-03-05T14:38:48.464Z,22
2023-03-05T14:42:30.865Z,26
2023-03-05T14:46:13.681Z,26
2023-03-05T14:48:41.555Z,27
2023-03-05T14:52:23.978Z,28
2023-03-05T14:54:52.193Z,27
2023-03-05T14:57:20.460Z,26
2023-03-05T14:59:48.747Z,24
2023-03-05T15:02:17.140Z,31
2023-03-05T15:04:45.357Z,29
2023-03-05T15:07:13.565Z,27
2023-03-05T15:09:41.858Z,26
2023-03-05T15:13:24.241Z,26
2023-03-05T15:15:52.504Z,28
2023-03-05T15:18:20.763Z,27
2023-03-05T15:20:49.037Z,31
2023-03-05T15:24:23.243Z,26
2023-03-05T15:26:51.539Z,25
2023-03-05T15:29:19.759Z,27
2023-03-05T15:31:48.016Z,27
2023-03-05T15:34:16.323Z,30
2023-03-05T15:36:44.559Z,27
2023-03-05T15:39:12.910Z,27
2023-03-05T15:41:41.081Z,27
2023-03-05T15:45:23.528Z,27
2023-03-05T15:47:51.830Z,25
2023-03-05T15:50:20.009Z,29
2023-03-05T15:52:48.312Z,26
2023-03-05T15:55:16.536Z,27
2023-03-05T15:57:44.846Z,26
2023-03-05T16:00:13.146Z,27
2023-03-05T16:02:41.369Z,27
2023-03-05T16:06:23.768Z,27
2023-03-05T16:08:52.029Z,31
2023-03-05T16:11:20.317Z,26
2023-03-05T16:13:48.588Z,29
2023-03-05T16:16:16.925Z,28
2023-03-05T16:21:13.408Z,28
2023-03-05T16:24:47.583Z,29
2023-03-05T16:27:15.834Z,28
2023-03-05T16:29:44.059Z,25
2023-03-05T16:32:12.384Z,36
2023-03-05T16:34:40.613Z,29
2023-03-05T16:38:23.027Z,29
2023-03-05T16:41:07.146Z,27
2023-03-05T16:43:19.554Z,33
2023-03-05T16:45:47.841Z,30
2023-03-05T16:48:16.111Z,31
2023-03-05T16:50:44.346Z,56
2023-03-05T16:53:12.656Z,31
2023-03-05T16:55:40.897Z,32
2023-03-05T16:59:23.327Z,37
2023-03-05T17:01:51.544Z,34
2023-03-05T17:04:19.860Z,33
2023-03-05T17:06:48.089Z,32
2023-03-05T17:09:16.345Z,31
2023-03-05T17:11:44.607Z,29
2023-03-05T17:14:12.890Z,31
2023-03-05T17:16:41.220Z,34
2023-03-05T17:20:23.556Z,34
2023-03-05T17:22:51.844Z,35
2023-03-05T17:25:11.913Z,30
2023-03-05T17:27:40.168Z,29
2023-03-05T17:31:22.702Z,26
2023-03-05T17:33:50.870Z,30
2023-03-05T17:36:19.117Z,35
2023-03-05T17:38:47.364Z,32
2023-03-05T17:41:15.640Z,33
2023-03-05T17:43:43.894Z,40
2023-03-05T17:46:12.177Z,42
2023-03-05T17:48:40.419Z,38
2023-03-05T17:52:22.847Z,41
2023-03-05T17:54:51.098Z,40
2023-03-05T17:57:19.389Z,31
2023-03-05T17:59:47.656Z,33
2023-03-05T18:02:15.952Z,27
2023-03-05T18:04:44.132Z,26
2023-03-05T18:07:12.471Z,28
2023-03-05T18:09:40.696Z,26
2023-03-05T18:13:23.114Z,25
2023-03-05T18:15:51.358Z,23
2023-03-05T18:18:19.651Z,23
2023-03-05T18:20:56.084Z,23
2023-03-05T18:23:24.350Z,29
2023-03-05T18:25:44.427Z,22
2023-03-05T18:28:12.711Z,26
2023-03-05T18:34:23.360Z,28
2023-03-05T18:36:51.622Z,23
2023-03-05T18:39:19.871Z,26
2023-03-05T18:41:48.320Z,28
2023-03-05T18:44:16.401Z,29
2023-03-05T18:46:44.689Z,25
2023-03-05T18:49:12.955Z,24
2023-03-05T18:51:41.276Z,26
2023-03-05T18:55:23.612Z,27
2023-03-05T18:57:51.931Z,25
2023-03-05T19:00:20.162Z,28
2023-03-05T19:02:48.415Z,28
2023-03-05T19:05:16.719Z,31
2023-03-05T19:07:45.008Z,31
2023-03-05T19:10:13.239Z,32
2023-03-05T19:12:41.487Z,32
2023-03-05T19:16:23.887Z,33
2023-03-05T19:18:52.145Z,34
2023-03-05T19:21:20.426Z,39
2023-03-05T19:23:48.687Z,42
2023-03-05T19:26:08.763Z,36
2023-03-05T19:28:37.016Z,34
2023-03-05T19:32:19.460Z,35
2023-03-05T19:34:47.700Z,31
2023-03-05T19:37:15.938Z,33
2023-03-05T19:39:44.224Z,32
2023-03-05T19:42:12.519Z,36
2023-03-05T19:44:40.801Z,34
2023-03-05T19:48:23.156Z,34
2023-03-05T19:50:51.432Z,33
2023-03-05T19:53:19.708Z,37
2023-03-05T19:55:47.975Z,36
2023-03-05T19:58:16.238Z,40
2023-03-05T20:00:44.475Z,38
2023-03-05T20:03:12.731Z,39
2023-03-05T20:05:41.029Z,45
2023-03-05T20:09:23.434Z,38
2023-03-05T20:11:51.687Z,35
2023-03-05T20:14:19.952Z,37
2023-03-05T20:16:48.212Z,44
2023-03-05T20:19:16.518Z,47
2023-03-05T20:21:44.758Z,40
2023-03-05T20:24:13.008Z,45
2023-03-05T20:30:15.559Z,47
2023-03-05T20:32:43.763Z,44
2023-03-05T20:35:12.072Z,48
2023-03-05T20:37:40.266Z,39
2023-03-05T20:41:22.675Z,36
2023-03-05T20:43:50.937Z,45
2023-03-05T20:46:19.283Z,50
2023-03-05T20:48:47.501Z,46
2023-03-05T20:51:15.733Z,47
2023-03-05T20:53:44.010Z,50
2023-03-05T20:56:12.281Z,44
2023-03-05T20:58:40.551Z,47
2023-03-05T21:02:23.072Z,46
2023-03-05T21:04:51.196Z,48
2023-03-05T21:07:19.477Z,42
2023-03-05T21:09:47.767Z,42
2023-03-05T21:12:16.057Z,41
2023-03-05T21:14:44.272Z,49
2023-03-05T21:17:12.580Z,46
2023-03-05T21:19:40.837Z,42
2023-03-05T21:23:23.240Z,49
2023-03-05T21:25:51.546Z,44
2023-03-05T21:29:25.733Z,44
2023-03-05T21:31:54.006Z,42
2023-03-05T21:34:22.253Z,46
2023-03-05T21:36:50.463Z,46
2023-03-05T21:39:18.779Z,39
2023-03-05T21:41:47.036Z,39
2023-03-05T21:44:15.310Z,47
2023-03-05T21:46:43.560Z,44
2023-03-05T21:50:25.992Z,47
2023-03-05T21:52:54.226Z,52
2023-03-05T21:55:22.510Z,48
2023-03-05T21:57:50.725Z,51
2023-03-05T22:00:18.991Z,46
2023-03-05T22:02:47.278Z,44
2023-03-05T22:05:15.537Z,40
2023-03-05T22:07:43.829Z,41
2023-03-05T22:10:12.066Z,40
2023-03-05T22:12:40.344Z,46
2023-03-05T22:16:22.847Z,44
2023-03-05T22:18:51.005Z,44
2023-03-05T22:21:19.281Z,46
2023-03-05T22:23:47.614Z,39
2023-03-05T22:27:21.795Z,39
2023-03-05T22:31:12.350Z,40
2023-03-05T22:33:40.621Z,43
2023-03-05T22:37:22.988Z,40
2023-03-05T22:39:51.259Z,42
2023-03-05T22:42:19.561Z,38
2023-03-05T22:44:47.814Z,37
2023-03-05T22:47:16.048Z,37
2023-03-05T22:49:46.752Z,39
2023-03-05T22:52:12.601Z,36
2023-03-05T22:54:40.850Z,33
2023-03-05T22:59:37.382Z,37
2023-03-05T23:03:19.875Z,40
2023-03-05T23:05:48.072Z,36
2023-03-05T23:08:16.375Z,39
2023-03-05T23:10:44.613Z,40
2023-03-05T23:13:12.865Z,35
2023-03-05T23:15:41.146Z,41
2023-03-05T23:19:23.518Z,39
2023-03-05T23:21:51.804Z,38
2023-03-05T23:24:20.115Z,38
2023-03-05T23:26:48.366Z,33
2023-03-05T23:30:22.549Z,36
2023-03-05T23:32:50.794Z,35
2023-03-05T23:35:19.098Z,34
2023-03-05T23:37:47.382Z,36
2023-03-05T23:40:15.594Z,34
2023-03-05T23:42:43.878Z,34
2023-03-05T23:45:12.117Z,33
2023-03-05T23:47:40.452Z,34
2023-03-05T23:51:22.788Z,38
2023-03-05T23:53:51.054Z,37
2023-03-05T23:56:19.326Z,36
2023-03-05T23:58:47.633Z,42
